createdAt,value
2022-11-16T00:06:45.351Z,7.55
2022-11-16T00:18:45.829Z,7.56
2022-11-16T00:30:46.267Z,7.52
2022-11-16T00:42:46.711Z,7.52
2022-11-16T00:54:47.189Z,7.51
2022-11-16T01:06:47.647Z,7.44
2022-11-16T01:18:48.503Z,7.40
2022-11-16T01:30:48.535Z,7.38
2022-11-16T01:42:49.007Z,7.35
2022-11-16T01:54:49.453Z,7.29
2022-11-16T02:06:49.971Z,7.28
2022-11-16T02:18:50.330Z,7.40
2022-11-16T02:30:50.893Z,7.25
2022-11-16T02:42:51.251Z,7.28
2022-11-16T02:54:51.698Z,7.09
2022-11-16T03:06:52.189Z,7.07
2022-11-16T03:18:52.629Z,7.24
2022-11-16T03:30:53.051Z,7.11
2022-11-16T03:42:53.503Z,7.02
2022-11-16T03:54:53.968Z,6.96
2022-11-16T04:06:54.481Z,6.96
2022-11-16T04:18:54.842Z,6.94
2022-11-16T04:30:55.307Z,7.20
2022-11-16T04:42:55.782Z,6.93
2022-11-16T04:54:56.267Z,6.91
2022-11-16T05:06:56.839Z,6.95
2022-11-16T05:18:57.137Z,6.86
2022-11-16T05:30:57.593Z,6.78
2022-11-16T05:42:58.043Z,6.70
2022-11-16T05:54:58.493Z,6.63
2022-11-16T06:06:59.275Z,6.65
2022-11-16T06:18:59.421Z,6.68
2022-11-16T06:30:59.885Z,6.79
2022-11-16T06:43:00.270Z,6.79
2022-11-16T06:55:00.764Z,6.90
2022-11-16T07:07:01.232Z,6.85
2022-11-16T07:19:01.665Z,7.00
2022-11-16T07:31:02.100Z,6.94
2022-11-16T07:43:02.538Z,7.07
2022-11-16T07:55:02.990Z,7.30
2022-11-16T08:07:03.498Z,7.32
2022-11-16T08:19:03.881Z,7.27
2022-11-16T08:31:04.341Z,7.76
2022-11-16T08:43:04.795Z,7.70
2022-11-16T08:55:05.276Z,8.04
2022-11-16T09:07:05.731Z,8.38
2022-11-16T09:19:06.183Z,8.16
2022-11-16T09:31:06.638Z,8.22
2022-11-16T09:43:07.055Z,8.17
2022-11-16T09:55:10.793Z,8.36
2022-11-16T10:07:08.077Z,8.23
2022-11-16T10:19:08.419Z,8.35
2022-11-16T10:31:08.910Z,8.53
2022-11-16T10:43:09.348Z,8.02
2022-11-16T10:55:09.797Z,8.36
2022-11-16T11:07:10.294Z,8.42
2022-11-16T11:19:10.725Z,8.31
2022-11-16T11:31:11.118Z,8.91
2022-11-16T11:43:14.946Z,8.48
2022-11-16T11:55:12.090Z,8.41
2022-11-16T12:07:12.522Z,8.43
2022-11-16T12:19:12.986Z,8.73
2022-11-16T12:31:13.418Z,8.40
2022-11-16T12:43:13.841Z,8.76
2022-11-16T12:55:27.119Z,8.99
2022-11-16T13:07:14.881Z,8.72
2022-11-16T13:19:15.243Z,8.63
2022-11-16T13:31:15.693Z,8.70
2022-11-16T13:43:16.121Z,8.63
2022-11-16T13:55:16.585Z,8.67
2022-11-16T14:07:17.100Z,8.62
2022-11-16T14:19:17.494Z,8.49
2022-11-16T14:31:17.939Z,8.56
2022-11-16T14:43:18.404Z,8.51
2022-11-16T14:55:18.852Z,8.23
2022-11-16T15:07:19.491Z,7.97
2022-11-16T15:31:20.208Z,7.80
2022-11-16T15:43:20.763Z,7.49
2022-11-16T15:55:21.191Z,7.12
2022-11-16T16:07:21.591Z,7.43
2022-11-16T16:19:22.026Z,7.24
2022-11-16T16:31:22.439Z,7.22
2022-11-16T16:43:22.889Z,7.04
2022-11-16T16:55:23.401Z,6.96
2022-11-16T17:07:23.964Z,6.82
2022-11-16T17:19:24.268Z,7.05
2022-11-16T17:31:24.778Z,6.73
2022-11-16T17:43:25.176Z,6.79
2022-11-16T17:55:25.635Z,6.88
2022-11-16T18:07:26.122Z,6.78
2022-11-16T18:19:26.552Z,6.85
2022-11-16T18:31:27.015Z,7.18
2022-11-16T18:43:27.443Z,6.95
2022-11-16T18:55:27.900Z,6.86
2022-11-16T19:07:28.403Z,7.02
2022-11-16T19:19:28.807Z,6.92
2022-11-16T19:31:29.298Z,6.91
2022-11-16T19:43:29.723Z,6.85
2022-11-16T19:55:30.143Z,6.44
2022-11-16T20:07:30.681Z,6.49
2022-11-16T20:19:31.066Z,6.21
2022-11-16T20:31:31.490Z,6.48
2022-11-16T20:43:32.388Z,6.40
2022-11-16T20:55:32.473Z,6.04
2022-11-16T21:07:32.973Z,5.90
2022-11-16T21:19:33.312Z,5.82
2022-11-16T21:31:33.772Z,5.62
2022-11-16T21:43:34.458Z,5.59
2022-11-16T21:55:34.682Z,5.51
2022-11-16T22:07:35.194Z,5.07
2022-11-16T22:19:35.559Z,4.47
2022-11-16T22:31:36.038Z,4.98
2022-11-16T22:43:36.746Z,4.44
2022-11-16T22:55:36.920Z,4.41
2022-11-16T23:07:37.485Z,4.69
2022-11-16T23:19:37.881Z,4.48
2022-11-16T23:31:38.321Z,4.84
2022-11-16T23:43:38.739Z,4.64
2022-11-16T23:55:39.214Z,4.62
